PUA2603 SEGU-SEQM
Flight info
| Callsign | PUA2603 |
|---|---|
| Flight time | N/A |
| Altitude | 22000 |
| Route | USOGI1 PAMIS G675 QIT |
| Aircraft | A339/H-SADE1E2E3GHIJ3J5M1P2RWXY/LB2D1 |
Departure
| Time | 2026-04-15 03:57 |
|---|---|
| Airport | José Joaquín de Olmedo International Airport (SEGU) |
Arrival
| Time | N/A |
|---|---|
| Airport | Mariscal Sucre International Airport (SEQM) |
| Time | Latitude | Longitude | Altitude | Speed | Heading |
|---|---|---|---|---|---|
| 2026-04-15 03:44 | -2.14761 | -79.88273 | 40 ft | 0 kts | 297° |
| 2026-04-15 03:48 | -2.14764 | -79.88268 | 41 ft | 1 kts | 291° |
| 2026-04-15 03:48 | -2.14768 | -79.88254 | 41 ft | 2 kts | 281° |
| 2026-04-15 03:48 | -2.14771 | -79.88240 | 41 ft | 2 kts | 284° |
| 2026-04-15 03:49 | -2.14775 | -79.88226 | 41 ft | 2 kts | 285° |
| 2026-04-15 03:49 | -2.14778 | -79.88212 | 41 ft | 2 kts | 284° |
| 2026-04-15 03:49 | -2.14782 | -79.88197 | 40 ft | 2 kts | 284° |
| 2026-04-15 03:49 | -2.14786 | -79.88183 | 40 ft | 2 kts | 284° |
| 2026-04-15 03:50 | -2.14790 | -79.88168 | 39 ft | 2 kts | 284° |
| 2026-04-15 03:50 | -2.14794 | -79.88154 | 39 ft | 1 kts | 290° |
| 2026-04-15 03:50 | -2.14799 | -79.88142 | 38 ft | 1 kts | 293° |
| 2026-04-15 03:50 | -2.14804 | -79.88130 | 38 ft | 2 kts | 282° |
| 2026-04-15 03:51 | -2.14807 | -79.88116 | 38 ft | 2 kts | 284° |
| 2026-04-15 03:51 | -2.14811 | -79.88102 | 37 ft | 2 kts | 286° |
| 2026-04-15 03:51 | -2.14814 | -79.88088 | 37 ft | 2 kts | 285° |
| 2026-04-15 03:51 | -2.14819 | -79.88075 | 36 ft | 1 kts | 300° |
| 2026-04-15 03:52 | -2.14826 | -79.88065 | 36 ft | 1 kts | 322° |
| 2026-04-15 03:52 | -2.14837 | -79.88058 | 36 ft | 1 kts | 343° |
| 2026-04-15 03:52 | -2.14850 | -79.88056 | 36 ft | 1 kts | 359° |
| 2026-04-15 03:52 | -2.14863 | -79.88058 | 36 ft | 1 kts | 18° |
| 2026-04-15 03:53 | -2.14871 | -79.88061 | 36 ft | 0 kts | 31° |
| 2026-04-15 03:53 | -2.14875 | -79.88063 | 36 ft | 0 kts | 31° |
| 2026-04-15 03:53 | -2.14874 | -79.88063 | 36 ft | 0 kts | 31° |
| 2026-04-15 03:54 | -2.14873 | -79.88062 | 36 ft | 1 kts | 31° |
| 2026-04-15 03:54 | -2.14839 | -79.88042 | 35 ft | 9 kts | 32° |
| 2026-04-15 03:55 | -2.14714 | -79.87967 | 37 ft | 10 kts | 30° |
| 2026-04-15 03:55 | -2.14662 | -79.87917 | 36 ft | 10 kts | 64° |
| 2026-04-15 03:55 | -2.14637 | -79.87841 | 35 ft | 12 kts | 82° |
| 2026-04-15 03:55 | -2.14663 | -79.87769 | 35 ft | 11 kts | 164° |
| 2026-04-15 03:56 | -2.14768 | -79.87809 | 35 ft | 26 kts | 207° |
| 2026-04-15 03:56 | -2.15100 | -79.87994 | 35 ft | 88 kts | 211° |
| 2026-04-15 03:56 | -2.15788 | -79.88390 | 39 ft | 144 kts | 210° |
| 2026-04-15 03:56 | -2.16718 | -79.88932 | 353 ft | 164 kts | 211° |
| 2026-04-15 03:57 | -2.17675 | -79.89510 | 998 ft | 161 kts | 210° |
| 2026-04-15 03:57 | -2.18616 | -79.90035 | 1679 ft | 157 kts | 210° |
| 2026-04-15 03:57 | -2.19541 | -79.90582 | 2087 ft | 164 kts | 223° |
| 2026-04-15 03:57 | -2.20068 | -79.91603 | 2371 ft | 178 kts | 266° |
| 2026-04-15 03:58 | -2.19804 | -79.92845 | 2672 ft | 195 kts | 301° |
| 2026-04-15 03:58 | -2.18763 | -79.93758 | 2967 ft | 213 kts | 340° |
| 2026-04-15 03:58 | -2.17265 | -79.93820 | 3280 ft | 232 kts | 13° |
| 2026-04-15 03:58 | -2.15637 | -79.93368 | 3652 ft | 250 kts | 15° |
| 2026-04-15 03:59 | -2.13896 | -79.92886 | 4047 ft | 267 kts | 15° |
| 2026-04-15 03:59 | -2.12075 | -79.92400 | 4627 ft | 276 kts | 14° |
| 2026-04-15 03:59 | -2.10239 | -79.91923 | 5375 ft | 278 kts | 14° |
| 2026-04-15 03:59 | -2.08339 | -79.91435 | 6123 ft | 281 kts | 13° |
| 2026-04-15 04:00 | -2.06456 | -79.90956 | 6843 ft | 284 kts | 13° |
| 2026-04-15 04:00 | -2.04524 | -79.90467 | 7569 ft | 287 kts | 13° |
| 2026-04-15 04:00 | -2.02594 | -79.89980 | 8298 ft | 289 kts | 13° |
| 2026-04-15 04:00 | -2.00618 | -79.89484 | 9028 ft | 291 kts | 13° |
| 2026-04-15 04:01 | -1.98669 | -79.88993 | 9704 ft | 294 kts | 13° |
| 2026-04-15 04:01 | -1.96673 | -79.88441 | 10348 ft | 299 kts | 20° |
| 2026-04-15 04:01 | -1.94803 | -79.87428 | 10701 ft | 316 kts | 37° |
| 2026-04-15 04:01 | -1.93174 | -79.85844 | 11010 ft | 333 kts | 48° |
| 2026-04-15 04:02 | -1.91638 | -79.84063 | 11274 ft | 350 kts | 49° |
| 2026-04-15 04:02 | -1.90020 | -79.82153 | 11546 ft | 366 kts | 48° |
| 2026-04-15 04:02 | -1.88339 | -79.80180 | 11945 ft | 377 kts | 49° |
| 2026-04-15 04:02 | -1.86639 | -79.78199 | 12641 ft | 379 kts | 49° |
| 2026-04-15 04:03 | -1.84902 | -79.76185 | 13300 ft | 380 kts | 49° |
| 2026-04-15 04:03 | -1.83190 | -79.74204 | 13928 ft | 384 kts | 49° |
| 2026-04-15 04:03 | -1.81422 | -79.72158 | 14469 ft | 388 kts | 49° |
| 2026-04-15 04:03 | -1.79674 | -79.70139 | 15069 ft | 391 kts | 49° |
| 2026-04-15 04:04 | -1.77877 | -79.68063 | 15661 ft | 393 kts | 49° |
| 2026-04-15 04:04 | -1.76101 | -79.66013 | 16237 ft | 396 kts | 49° |
| 2026-04-15 04:04 | -1.74287 | -79.63921 | 16791 ft | 399 kts | 49° |
| 2026-04-15 04:04 | -1.72459 | -79.61814 | 17290 ft | 403 kts | 49° |
| 2026-04-15 04:05 | -1.70635 | -79.59708 | 17939 ft | 404 kts | 49° |
| 2026-04-15 04:05 | -1.68792 | -79.57583 | 18469 ft | 407 kts | 49° |
| 2026-04-15 04:05 | -1.66907 | -79.55409 | 18963 ft | 411 kts | 49° |
| 2026-04-15 04:05 | -1.65046 | -79.53262 | 19438 ft | 414 kts | 49° |
| 2026-04-15 04:06 | -1.63162 | -79.51090 | 19968 ft | 417 kts | 49° |
| 2026-04-15 04:06 | -1.61235 | -79.48928 | 20457 ft | 420 kts | 46° |
| 2026-04-15 04:06 | -1.59121 | -79.46964 | 20914 ft | 423 kts | 41° |
| 2026-04-15 04:06 | -1.56734 | -79.45180 | 21374 ft | 427 kts | 34° |
| 2026-04-15 04:07 | -1.54208 | -79.43634 | 21788 ft | 430 kts | 32° |
| 2026-04-15 04:07 | -1.51608 | -79.42127 | 22039 ft | 432 kts | 31° |
| 2026-04-15 04:07 | -1.49008 | -79.40632 | 22067 ft | 432 kts | 31° |
| 2026-04-15 04:07 | -1.46444 | -79.39157 | 22084 ft | 431 kts | 31° |
| 2026-04-15 04:08 | -1.43845 | -79.37657 | 22075 ft | 432 kts | 31° |
| 2026-04-15 04:08 | -1.41262 | -79.36163 | 22087 ft | 432 kts | 31° |
| 2026-04-15 04:08 | -1.38690 | -79.34673 | 22100 ft | 432 kts | 31° |
| 2026-04-15 04:08 | -1.36095 | -79.33167 | 22090 ft | 432 kts | 31° |
| 2026-04-15 04:09 | -1.33485 | -79.31652 | 22091 ft | 432 kts | 32° |
| 2026-04-15 04:09 | -1.31056 | -79.29926 | 22087 ft | 431 kts | 43° |
| 2026-04-15 04:09 | -1.29081 | -79.27653 | 22092 ft | 430 kts | 57° |
| 2026-04-15 04:09 | -1.27734 | -79.25022 | 22114 ft | 428 kts | 70° |
| 2026-04-15 04:10 | -1.27045 | -79.22121 | 22145 ft | 428 kts | 82° |
| 2026-04-15 04:10 | -1.26769 | -79.19199 | 22185 ft | 427 kts | 86° |
| 2026-04-15 04:10 | -1.26577 | -79.16225 | 22232 ft | 427 kts | 86° |
| 2026-04-15 04:10 | -1.26403 | -79.13263 | 22282 ft | 428 kts | 86° |
| 2026-04-15 04:11 | -1.26232 | -79.10304 | 22323 ft | 429 kts | 86° |
| 2026-04-15 04:11 | -1.26058 | -79.07309 | 22344 ft | 428 kts | 86° |
| 2026-04-15 04:11 | -1.25889 | -79.04380 | 22369 ft | 429 kts | 86° |
| 2026-04-15 04:11 | -1.25551 | -79.01424 | 22375 ft | 428 kts | 75° |
| 2026-04-15 04:12 | -1.24279 | -78.98767 | 22409 ft | 429 kts | 54° |
| 2026-04-15 04:12 | -1.22131 | -78.96668 | 22439 ft | 430 kts | 36° |
| 2026-04-15 04:12 | -1.19491 | -78.95293 | 22451 ft | 432 kts | 20° |
| 2026-04-15 04:12 | -1.16596 | -78.94702 | 22460 ft | 435 kts | 4° |
| 2026-04-15 04:13 | -1.13664 | -78.94924 | 22473 ft | 437 kts | 351° |
| 2026-04-15 04:13 | -1.10733 | -78.95488 | 22476 ft | 437 kts | 350° |
| 2026-04-15 04:13 | -1.07820 | -78.96040 | 22475 ft | 437 kts | 351° |
| 2026-04-15 04:13 | -1.04879 | -78.96580 | 22477 ft | 437 kts | 351° |
| 2026-04-15 04:14 | -1.01975 | -78.97098 | 22483 ft | 436 kts | 351° |
| 2026-04-15 04:14 | -0.99044 | -78.97613 | 22491 ft | 436 kts | 351° |
| 2026-04-15 04:14 | -0.96135 | -78.98122 | 22490 ft | 436 kts | 351° |
| 2026-04-15 04:14 | -0.93182 | -78.98635 | 22481 ft | 436 kts | 351° |
| 2026-04-15 04:15 | -0.90183 | -78.99153 | 22470 ft | 436 kts | 351° |
| 2026-04-15 04:15 | -0.87157 | -78.99678 | 22462 ft | 437 kts | 351° |
| 2026-04-15 04:15 | -0.84211 | -79.00178 | 22452 ft | 437 kts | 353° |
| 2026-04-15 04:15 | -0.81224 | -79.00200 | 22429 ft | 435 kts | 9° |
| 2026-04-15 04:16 | -0.78357 | -78.99417 | 22432 ft | 434 kts | 24° |
| 2026-04-15 04:16 | -0.75748 | -78.97955 | 22435 ft | 433 kts | 34° |
| 2026-04-15 04:16 | -0.73242 | -78.96305 | 22437 ft | 433 kts | 34° |
| 2026-04-15 04:16 | -0.70761 | -78.94657 | 22436 ft | 433 kts | 34° |
| 2026-04-15 04:17 | -0.68270 | -78.93009 | 22429 ft | 433 kts | 34° |
| 2026-04-15 04:17 | -0.65778 | -78.91373 | 22427 ft | 432 kts | 34° |
| 2026-04-15 04:17 | -0.63266 | -78.89731 | 22423 ft | 433 kts | 34° |
| 2026-04-15 04:17 | -0.60802 | -78.88126 | 22415 ft | 433 kts | 34° |
| 2026-04-15 04:18 | -0.58290 | -78.86493 | 22404 ft | 433 kts | 34° |
| 2026-04-15 04:18 | -0.55781 | -78.84862 | 22404 ft | 433 kts | 34° |
| 2026-04-15 04:18 | -0.53290 | -78.83245 | 22408 ft | 433 kts | 34° |
| 2026-04-15 04:18 | -0.50780 | -78.81615 | 22398 ft | 433 kts | 34° |
| 2026-04-15 04:19 | -0.48301 | -78.80007 | 22390 ft | 433 kts | 34° |
| 2026-04-15 04:19 | -0.45760 | -78.78359 | 22391 ft | 433 kts | 34° |
| 2026-04-15 04:19 | -0.43296 | -78.76760 | 22386 ft | 432 kts | 34° |
| 2026-04-15 04:19 | -0.40763 | -78.75115 | 22385 ft | 432 kts | 34° |
| 2026-04-15 04:20 | -0.38290 | -78.73508 | 22382 ft | 433 kts | 34° |
| 2026-04-15 04:20 | -0.35753 | -78.71863 | 22378 ft | 433 kts | 34° |
| 2026-04-15 04:20 | -0.33274 | -78.70255 | 22376 ft | 432 kts | 34° |
| 2026-04-15 04:20 | -0.30763 | -78.68625 | 22323 ft | 426 kts | 34° |
| 2026-04-15 04:21 | -0.28355 | -78.67062 | 22040 ft | 419 kts | 34° |
| 2026-04-15 04:21 | -0.26023 | -78.65548 | 21721 ft | 413 kts | 34° |
| 2026-04-15 04:21 | -0.23659 | -78.64011 | 21405 ft | 408 kts | 34° |
| 2026-04-15 04:21 | -0.21381 | -78.62532 | 20892 ft | 400 kts | 34° |
| 2026-04-15 04:22 | -0.19131 | -78.61069 | 20098 ft | 392 kts | 33° |
| 2026-04-15 04:22 | -0.16961 | -78.59657 | 19673 ft | 376 kts | 33° |
| 2026-04-15 04:22 | -0.14845 | -78.58282 | 19349 ft | 365 kts | 33° |
| 2026-04-15 04:22 | -0.12768 | -78.56934 | 19019 ft | 357 kts | 33° |
| 2026-04-15 04:23 | -0.10756 | -78.55627 | 18731 ft | 352 kts | 33° |
| 2026-04-15 04:23 | -0.08765 | -78.54334 | 18696 ft | 341 kts | 33° |
| 2026-04-15 04:23 | -0.07041 | -78.52797 | 18665 ft | 330 kts | 54° |
| 2026-04-15 04:23 | -0.06104 | -78.50767 | 18644 ft | 320 kts | 77° |
| 2026-04-15 04:24 | -0.06116 | -78.48619 | 18592 ft | 311 kts | 107° |
| 2026-04-15 04:24 | -0.07179 | -78.46816 | 18552 ft | 301 kts | 138° |
| 2026-04-15 04:24 | -0.08944 | -78.45853 | 18514 ft | 290 kts | 170° |
| 2026-04-15 04:24 | -0.10897 | -78.45954 | 18491 ft | 290 kts | 202° |
| 2026-04-15 04:25 | -0.12540 | -78.47042 | 18486 ft | 290 kts | 225° |
| 2026-04-15 04:25 | -0.13920 | -78.48495 | 18462 ft | 291 kts | 228° |
| 2026-04-15 04:25 | -0.15407 | -78.49780 | 18353 ft | 286 kts | 206° |
| 2026-04-15 04:25 | -0.17283 | -78.50245 | 18024 ft | 287 kts | 178° |
| 2026-04-15 04:26 | -0.19278 | -78.50038 | 17730 ft | 287 kts | 171° |
| 2026-04-15 04:26 | -0.21228 | -78.49725 | 17431 ft | 287 kts | 171° |
| 2026-04-15 04:26 | -0.23198 | -78.49450 | 17124 ft | 286 kts | 173° |
| 2026-04-15 04:26 | -0.25144 | -78.49232 | 16847 ft | 283 kts | 174° |
| 2026-04-15 04:27 | -0.27089 | -78.49051 | 16583 ft | 279 kts | 175° |
| 2026-04-15 04:27 | -0.29015 | -78.48888 | 16332 ft | 274 kts | 175° |
| 2026-04-15 04:27 | -0.30917 | -78.48736 | 16069 ft | 271 kts | 175° |
| 2026-04-15 04:27 | -0.32792 | -78.48587 | 15813 ft | 266 kts | 175° |
| 2026-04-15 04:28 | -0.34621 | -78.48434 | 15609 ft | 260 kts | 171° |
| 2026-04-15 04:28 | -0.36354 | -78.48029 | 15369 ft | 256 kts | 159° |
| 2026-04-15 04:28 | -0.37948 | -78.47273 | 15118 ft | 252 kts | 148° |
| 2026-04-15 04:28 | -0.39393 | -78.46284 | 14863 ft | 250 kts | 140° |
| 2026-04-15 04:29 | -0.40680 | -78.45160 | 14749 ft | 242 kts | 134° |
| 2026-04-15 04:29 | -0.41787 | -78.43949 | 14738 ft | 229 kts | 124° |
| 2026-04-15 04:29 | -0.42422 | -78.42545 | 14595 ft | 220 kts | 94° |
| 2026-04-15 04:29 | -0.42258 | -78.41052 | 14271 ft | 220 kts | 64° |
| 2026-04-15 04:30 | -0.41376 | -78.39822 | 13879 ft | 222 kts | 36° |
| 2026-04-15 04:30 | -0.40024 | -78.39066 | 13535 ft | 222 kts | 24° |
| 2026-04-15 04:30 | -0.38614 | -78.38466 | 13216 ft | 221 kts | 23° |
| 2026-04-15 04:30 | -0.37190 | -78.37862 | 12780 ft | 226 kts | 24° |
| 2026-04-15 04:31 | -0.35724 | -78.37222 | 12243 ft | 236 kts | 24° |
| 2026-04-15 04:31 | -0.34199 | -78.36544 | 11668 ft | 244 kts | 24° |
| 2026-04-15 04:31 | -0.32621 | -78.35833 | 11098 ft | 252 kts | 24° |
| 2026-04-15 04:31 | -0.31011 | -78.35129 | 10726 ft | 249 kts | 18° |
| 2026-04-15 04:32 | -0.29364 | -78.34780 | 10625 ft | 238 kts | 4° |
| 2026-04-15 04:32 | -0.27751 | -78.34749 | 10610 ft | 225 kts | 357° |
| 2026-04-15 04:32 | -0.26199 | -78.34829 | 10407 ft | 221 kts | 356° |
| 2026-04-15 04:32 | -0.24658 | -78.34920 | 10101 ft | 216 kts | 356° |
| 2026-04-15 04:33 | -0.23195 | -78.34991 | 9820 ft | 206 kts | 357° |
| 2026-04-15 04:33 | -0.21789 | -78.35048 | 9541 ft | 198 kts | 357° |
| 2026-04-15 04:33 | -0.20423 | -78.35103 | 9263 ft | 190 kts | 357° |
| 2026-04-15 04:33 | -0.19134 | -78.35156 | 9005 ft | 183 kts | 356° |
| 2026-04-15 04:34 | -0.17876 | -78.35210 | 8757 ft | 176 kts | 356° |
| 2026-04-15 04:34 | -0.16672 | -78.35261 | 8522 ft | 170 kts | 356° |
| 2026-04-15 04:34 | -0.15513 | -78.35310 | 8287 ft | 165 kts | 356° |
| 2026-04-15 04:34 | -0.14388 | -78.35357 | 8062 ft | 159 kts | 356° |
| 2026-04-15 04:35 | -0.13304 | -78.35401 | 7954 ft | 142 kts | 356° |
| 2026-04-15 04:35 | -0.12625 | -78.35433 | 7912 ft | 60 kts | 359° |